Terminal Aerodrome Forecast
Issued by NWS Jackson, MS

Current Version | Previous Version | Text Only | Print | Product List | Glossary On
Versions: 1 2 3 4 5 6 7 8 9 10 11 12 13 14 15 16 17 18 19 20
000
FTUS44 KMEG 050523
TAFTUP
TAF
KTUP 050523Z 0506/0606 VRB02KT 4SM BR SCT002 SCT030
      TEMPO 0506/0507 2SM BR BKN002 BKN030
     FM050700 VRB02KT 2SM BR OVC005
      TEMPO 0507/0511 1/2SM FG VV002
     FM051400 24004KT 4SM BR BKN010
     FM051600 24006KT P6SM BKN020 OVC035
     FM051900 24006KT P6SM VCTS BKN040CB
     FM060000 21004KT P6SM SCT040 SCT250=

USA.gov is the U.S. government's official web portal to all federal, state and local government web resources and services.